Nearby METAR Reports

 

KMTN - Baltimore/Martin, Maryland, USA
Distance from station: SSE 8mi, 13km
Updated: Sat, 02-Aug-2014 2:21am EDT
Rain, Overcast
Rain, Overcast
 Wind from calm
Wind: Calm
Temperature: 66°F , 19°C
Dew Point: 66°F , 19°C
Humidity: 100%
Barometer: 30.16 inHg , 1021.3 hPa
Summary: Rain
Clouds: Overcast
Visibility: 7 miles , 11 km
Cloud details: Mostly cloudy 900 ft
Mostly cloudy 1300 ft
Overcast 2000 ft
2014/08/02 06:21 KMTN 020621Z AUTO 00000KT 7SM RA BKN009 BKN013 OVC020 19/19 A3016 RMK AO2 P0002
KDMH - Baltimore/Dwntwn, Maryland, USA
Distance from station: SW 12mi, 19km
Updated: Sat, 02-Aug-2014 1:54am EDT

 
Temperature: 66°F , 19°C
Dew Point: 63°F , 17°C
Humidity: 88%
Barometer: 30.17 inHg , 1021.7 hPa
2014/08/02 05:54 KDMH 020554Z AUTO 19/17 A3017 RMK AO1 SLP214 P0004 60005 T01940167 10244 20189 58005
 
KBWI - Balto/Wash Intl, Maryland, USA
Distance from station: SSW 20mi, 33km
Updated: Sat, 02-Aug-2014 1:54am EDT
Light rain, Mist, Overcast
Light rain, Mist, Overcast
 Wind from NNW
Wind: NNW 3 mph , 6 km/h
Temperature: 64°F , 18°C
Dew Point: 64°F , 18°C
Humidity: 100%
Barometer: 30.15 inHg , 1021 hPa
Summary: Light rain, Mist
Clouds: Overcast
Visibility: 4 miles , 6 km
Cloud details: Few Clouds 3300 ft
Partly cloudy 8000 ft
Mostly cloudy 11000 ft
Overcast 13000 ft
2014/08/02 05:54 KBWI 020554Z 33003KT 4SM -RA BR FEW033 SCT080 BKN110 OVC130 18/18 A3015 RMK AO2 SLP209 P0007 60015 T01830178 10233 20183 58006
KDMW - Carroll Cnty, Maryland, USA
Distance from station: WNW 30mi, 48km
Updated: Sat, 02-Aug-2014 2:20am EDT
Partly cloudy
Partly cloudy
 Wind from S
Wind: S 6 mph , 9 km/h
Temperature: 66°F , 19°C
Dew Point: 64°F , 18°C
Humidity: 94%
Barometer: 30.17 inHg , 1021.7 hPa
Clouds: Partly cloudy
Visibility: 10 miles , 16 km
Cloud details: Partly cloudy 10000 ft
2014/08/02 06:20 KDMW 020620Z AUTO 18005KT 10SM SCT100 19/18 A3017 RMK AO2 LTG DSNT S
 
KNAK - Annapolis/Naval, Maryland, USA
Distance from station: S 30mi, 48km
Updated: Sat, 02-Aug-2014 1:54am EDT
Light rain, Mist, Mostly cloudy
Light rain, Mist, Mostly cloudy
 Wind from N
Wind: N 7 mph , 11 km/h
Temperature: 68°F , 20°C
Dew Point: 64°F , 18°C
Humidity: 88%
Barometer: 30.13 inHg , 1020.3 hPa
Summary: Light rain, Mist
Clouds: Mostly cloudy
Visibility: 5 miles , 8 km
Cloud details: Mostly cloudy 11000 ft
2014/08/02 05:54 KNAK 020554Z AUTO 36006KT 5SM -RA BR BKN110 20/18 A3013 RMK AO2 SLP206 P0006 60014 T02000183 10239 20200 58016
KW29 - Stevensville, Maryland, USA
Distance from station: SSE 31mi, 50km
Updated: Sat, 02-Aug-2014 2:22am EDT
Rain
Rain
 Wind from calm
Wind: Calm
Temperature: 64°F , 18°C
Dew Point: 64°F , 18°C
Humidity: 100%
Barometer: 30.14 inHg , 1020.7 hPa
Summary: Rain
Visibility: 10 miles , 16 km
2014/08/02 06:22 KW29 020622Z AUTO 00000KT 10SM RA 18/18 A3014 RMK AO1
 
KCGS - College Park, Maryland, USA
Distance from station: SW 38mi, 61km
Updated: Sat, 02-Aug-2014 2:20am EDT
Partly cloudy
Partly cloudy
 Wind from calm
Wind: Calm
Temperature: 66°F , 19°C
Dew Point: 64°F , 18°C
Humidity: 94%
Barometer: 30.14 inHg , 1020.7 hPa
Clouds: Partly cloudy
Visibility: 5 miles , 8 km
Cloud details: Partly cloudy 6500 ft
2014/08/02 06:20 KCGS 020620Z AUTO 00000KT 5SM SCT065 19/18 A3014 RMK AO1
KGAI - Gaithersburg, Maryland, USA
Distance from station: WSW 40mi, 65km
Updated: Sat, 02-Aug-2014 2:15am EDT
Mostly cloudy
Mostly cloudy
 Wind from calm
Wind: Calm
Temperature: 63°F , 17°C
Dew Point: 61°F , 16°C
Humidity: 94%
Barometer: 30.20 inHg , 1022.7 hPa
Clouds: Mostly cloudy
Visibility: 5 miles , 8 km
Cloud details: Few Clouds 4100 ft
Mostly cloudy 6000 ft
2014/08/02 06:15 KGAI 020615Z AUTO 00000KT 5SM FEW041 BKN060 17/16 A3020 RMK AO1
 
KTHV - York, Pennsylvania, USA
Distance from station: NNW 40mi, 65km
Updated: Sat, 02-Aug-2014 1:53am EDT
Light rain, Overcast
Light rain, Overcast
 Wind from calm
Wind: Calm
Temperature: 66°F , 19°C
Dew Point: 63°F , 17°C
Humidity: 88%
Barometer: 30.17 inHg , 1021.7 hPa
Summary: Light rain
Clouds: Overcast
Visibility: 8 miles , 13 km
Cloud details: Mostly cloudy 5000 ft
Overcast 10000 ft
2014/08/02 05:53 KTHV 020553Z AUTO 00000KT 8SM -RA BKN050 OVC100 19/17 A3017 RMK AO2 RAB38 SLP215 P0000 60000 T01940172 10233 20194 56004
KFDK - Frederick, Maryland, USA
Distance from station: W 47mi, 75km
Updated: Sat, 02-Aug-2014 2:20am EDT
Mostly cloudy
Mostly cloudy
 Wind from calm
Wind: Calm
Temperature: 68°F , 20°C
Dew Point: 64°F , 18°C
Humidity: 88%
Barometer: 30.19 inHg , 1022.4 hPa
Clouds: Mostly cloudy
Visibility: 10 miles , 16 km
Cloud details: Mostly cloudy 10000 ft
2014/08/02 06:20 KFDK 020620Z AUTO 00000KT 10SM BKN100 20/18 A3019 RMK AO2
 
KESN - Easton/Newnam, Maryland, USA
Distance from station: SSE 48mi, 78km
Updated: Sat, 02-Aug-2014 2:34am EDT
Rain, Overcast
Rain, Overcast
 Wind from SE
Wind: SE 6 mph , 9 km/h
Temperature: 68°F , 20°C
Dew Point: 68°F , 20°C
Humidity: 100%
Barometer: 30.17 inHg , 1021.7 hPa
Summary: Rain
Clouds: Overcast
Visibility: 5 miles , 8 km
Cloud details: Mostly cloudy 600 ft
Overcast 1200 ft
2014/08/02 06:34 KESN 020634Z AUTO 13005KT 5SM RA BKN006 OVC012 20/20 A3017 RMK AO2 P0007 T01960196
KDCA - Washington/Natl, Washington D.c., USA
Distance from station: SW 49mi, 79km
Updated: Sat, 02-Aug-2014 1:52am EDT
Light rain, Overcast
Light rain, Overcast
 Wind from NNE
Wind: NNE 6 mph , 9 km/h
Temperature: 68°F , 20°C
Dew Point: 61°F , 16°C
Humidity: 78%
Barometer: 30.15 inHg , 1021 hPa
Summary: Light rain
Clouds: Overcast
Visibility: 10 miles , 16 km
Cloud details: Mostly cloudy 13000 ft
Overcast 15000 ft
2014/08/02 05:52 KDCA 020552Z 02005KT 10SM -RA BKN130 OVC150 20/16 A3015 RMK AO2 SLP210 P0002 60013 T02000156 10250 20200 58010
 
KLNS - Lancaster, Pennsylvania, USA
Distance from station: N 49mi, 79km
Updated: Sat, 02-Aug-2014 1:53am EDT
Mist, Mostly cloudy
Mist, Mostly cloudy
 Wind from ENE
Wind: ENE 3 mph , 6 km/h
Temperature: 66°F , 19°C
Dew Point: 66°F , 19°C
Humidity: 100%
Barometer: 30.18 inHg , 1022 hPa
Summary: Mist
Clouds: Mostly cloudy
Visibility: 2 miles , 3 km
Cloud details: Few Clouds 600 ft
Mostly cloudy 10000 ft
2014/08/02 05:53 KLNS 020553Z AUTO 06003KT 2SM BR FEW006 BKN100 19/19 A3018 RMK AO2 SLP215 T01940189 10200 20194 56004
KILG - Wilmington, Delaware, USA
Distance from station: ENE 50mi, 81km
Updated: Sat, 02-Aug-2014 1:51am EDT
Rain, Partly cloudy
Rain, Partly cloudy
 Wind from calm
Wind: Calm
Temperature: 70°F , 21°C
Dew Point: 64°F , 18°C
Humidity: 83%
Barometer: 30.18 inHg , 1022 hPa
Summary: Rain
Clouds: Partly cloudy
Visibility: 7 miles , 11 km
Cloud details: Partly cloudy 11000 ft
2014/08/02 05:51 KILG 020551Z AUTO 00000KT 7SM RA SCT110 21/18 A3018 RMK AO2 SLP219 P0005 60005 T02060183 10228 20206 55002